TimePST,TemperatureF,Dew PointF,Humidity,Sea Level PressureIn,VisibilityMPH,Wind Direction,Wind SpeedMPH,Gust SpeedMPH,PrecipitationIn,Events,Conditions,WindDirDegrees,DateUTC
12:56 AM,21.0,16.0,81,30.22,10.0,Calm,Calm,-,N/A,,Clear,0,2013-01-22 08:56:00
1:56 AM,23.0,16.0,74,30.21,10.0,WNW,4.6,-,N/A,,Clear,290,2013-01-22 09:56:00
2:56 AM,21.9,15.1,75,30.20,10.0,West,3.5,-,N/A,,Clear,270,2013-01-22 10:56:00
3:56 AM,25.0,16.0,69,30.19,10.0,Calm,Calm,-,N/A,,Clear,0,2013-01-22 11:56:00
4:56 AM,21.0,15.1,78,30.22,10.0,Calm,Calm,-,N/A,,Clear,0,2013-01-22 12:56:00
5:56 AM,17.1,14.0,88,30.23,10.0,Calm,Calm,-,N/A,,Clear,0,2013-01-22 13:56:00
6:56 AM,16.0,12.9,88,30.25,10.0,West,5.8,-,N/A,,Clear,270,2013-01-22 14:56:00
7:56 AM,15.1,12.0,88,30.25,10.0,Calm,Calm,-,N/A,,Clear,0,2013-01-22 15:56:00
8:56 AM,19.0,15.1,85,30.25,10.0,Calm,Calm,-,N/A,,Clear,0,2013-01-22 16:56:00
9:56 AM,25.0,18.0,75,30.24,10.0,NW,4.6,-,N/A,,Clear,310,2013-01-22 17:56:00
10:56 AM,33.1,19.0,56,30.22,10.0,Calm,Calm,-,N/A,,Clear,0,2013-01-22 18:56:00
11:56 AM,37.0,21.0,52,30.18,10.0,NW,6.9,-,N/A,,Clear,310,2013-01-22 19:56:00
12:56 PM,34.0,23.0,64,30.16,10.0,NW,5.8,-,N/A,,Clear,320,2013-01-22 20:56:00
1:56 PM,37.0,23.0,57,30.13,10.0,NW,6.9,-,N/A,,Clear,310,2013-01-22 21:56:00
2:56 PM,34.0,21.9,61,30.13,10.0,NNW,9.2,-,N/A,,Clear,330,2013-01-22 22:56:00
3:56 PM,30.9,19.9,64,30.14,10.0,NW,5.8,-,N/A,,Clear,310,2013-01-22 23:56:00
4:56 PM,27.0,21.0,78,30.16,10.0,WNW,5.8,-,N/A,,Clear,300,2013-01-23 00:56:00
5:56 PM,24.1,19.9,84,30.17,10.0,NW,5.8,-,N/A,,Clear,310,2013-01-23 01:56:00
6:56 PM,24.1,19.9,84,30.17,10.0,West,5.8,-,N/A,,Clear,280,2013-01-23 02:56:00
7:56 PM,23.0,19.0,85,30.17,10.0,West,4.6,-,N/A,,Clear,280,2013-01-23 03:56:00
8:56 PM,21.9,19.9,92,30.16,10.0,Calm,Calm,-,N/A,,Clear,0,2013-01-23 04:56:00
9:56 PM,23.0,19.9,88,30.14,10.0,Calm,Calm,-,N/A,,Clear,0,2013-01-23 05:56:00
10:56 PM,24.1,19.9,84,30.11,10.0,Calm,Calm,-,N/A,,Clear,0,2013-01-23 06:56:00
11:56 PM,24.1,19.9,84,30.08,10.0,Calm,Calm,-,N/A,,Clear,0,2013-01-23 07:56:00